sensor_id;sensor_type;location;lat;lon;timestamp;P1;durP1;ratioP1;P2;durP2;ratioP2
12350;SDS011;6240;51.538;7.696;2022-10-16T00:01:38;3.63;;;2.30;;
12350;SDS011;6240;51.538;7.696;2022-10-16T00:04:05;3.70;;;2.20;;
12350;SDS011;6240;51.538;7.696;2022-10-16T00:06:32;4.67;;;2.20;;
12350;SDS011;6240;51.538;7.696;2022-10-16T00:09:00;2.80;;;1.80;;
12350;SDS011;6240;51.538;7.696;2022-10-16T00:11:29;3.37;;;1.83;;
12350;SDS011;6240;51.538;7.696;2022-10-16T00:13:58;3.07;;;1.60;;
12350;SDS011;6240;51.538;7.696;2022-10-16T00:16:26;3.40;;;1.70;;
12350;SDS011;6240;51.538;7.696;2022-10-16T00:18:54;3.63;;;2.00;;
12350;SDS011;6240;51.538;7.696;2022-10-16T00:21:22;3.03;;;1.80;;
12350;SDS011;6240;51.538;7.696;2022-10-16T00:23:49;4.53;;;1.97;;
12350;SDS011;6240;51.538;7.696;2022-10-16T00:26:18;3.00;;;1.60;;
12350;SDS011;6240;51.538;7.696;2022-10-16T00:28:47;1.60;;;1.47;;
12350;SDS011;6240;51.538;7.696;2022-10-16T00:31:15;4.07;;;1.67;;
12350;SDS011;6240;51.538;7.696;2022-10-16T00:33:42;2.43;;;1.80;;
12350;SDS011;6240;51.538;7.696;2022-10-16T00:36:11;2.80;;;1.70;;
12350;SDS011;6240;51.538;7.696;2022-10-16T00:38:39;3.00;;;1.83;;
12350;SDS011;6240;51.538;7.696;2022-10-16T00:41:06;4.10;;;1.80;;
12350;SDS011;6240;51.538;7.696;2022-10-16T00:43:34;1.97;;;1.63;;
12350;SDS011;6240;51.538;7.696;2022-10-16T00:46:04;2.77;;;1.50;;
12350;SDS011;6240;51.538;7.696;2022-10-16T00:48:32;3.93;;;1.40;;
12350;SDS011;6240;51.538;7.696;2022-10-16T00:50:59;5.40;;;1.33;;
12350;SDS011;6240;51.538;7.696;2022-10-16T00:53:26;1.60;;;1.30;;
12350;SDS011;6240;51.538;7.696;2022-10-16T00:55:54;2.03;;;1.50;;
12350;SDS011;6240;51.538;7.696;2022-10-16T00:58:21;2.50;;;1.53;;
12350;SDS011;6240;51.538;7.696;2022-10-16T01:00:48;7.83;;;1.67;;
12350;SDS011;6240;51.538;7.696;2022-10-16T01:03:27;3.70;;;1.63;;
12350;SDS011;6240;51.538;7.696;2022-10-16T01:05:57;2.40;;;1.80;;
12350;SDS011;6240;51.538;7.696;2022-10-16T01:08:27;3.30;;;1.53;;
12350;SDS011;6240;51.538;7.696;2022-10-16T01:10:57;3.67;;;1.80;;
12350;SDS011;6240;51.538;7.696;2022-10-16T01:13:27;3.10;;;1.43;;
12350;SDS011;6240;51.538;7.696;2022-10-16T01:15:59;2.20;;;1.40;;
12350;SDS011;6240;51.538;7.696;2022-10-16T01:18:30;3.90;;;1.47;;
12350;SDS011;6240;51.538;7.696;2022-10-16T01:21:01;1.20;;;1.10;;
12350;SDS011;6240;51.538;7.696;2022-10-16T01:23:33;5.57;;;1.63;;
12350;SDS011;6240;51.538;7.696;2022-10-16T01:28:57;2.67;;;1.50;;
12350;SDS011;6240;51.538;7.696;2022-10-16T01:31:28;3.60;;;1.40;;
12350;SDS011;6240;51.538;7.696;2022-10-16T01:33:56;1.70;;;1.60;;
12350;SDS011;6240;51.538;7.696;2022-10-16T01:36:26;2.47;;;1.50;;
12350;SDS011;6240;51.538;7.696;2022-10-16T01:38:56;2.13;;;1.47;;
12350;SDS011;6240;51.538;7.696;2022-10-16T01:41:28;6.27;;;1.60;;
12350;SDS011;6240;51.538;7.696;2022-10-16T01:44:01;2.23;;;1.60;;
12350;SDS011;6240;51.538;7.696;2022-10-16T01:46:28;5.17;;;1.80;;
12350;SDS011;6240;51.538;7.696;2022-10-16T01:48:57;2.90;;;1.40;;
12350;SDS011;6240;51.538;7.696;2022-10-16T01:51:26;3.20;;;1.70;;
12350;SDS011;6240;51.538;7.696;2022-10-16T01:53:55;4.30;;;1.50;;
12350;SDS011;6240;51.538;7.696;2022-10-16T01:56:23;1.97;;;1.20;;
12350;SDS011;6240;51.538;7.696;2022-10-16T01:58:52;3.17;;;1.37;;
12350;SDS011;6240;51.538;7.696;2022-10-16T02:01:22;3.50;;;1.50;;
12350;SDS011;6240;51.538;7.696;2022-10-16T02:03:50;2.03;;;1.37;;
12350;SDS011;6240;51.538;7.696;2022-10-16T02:06:18;1.43;;;1.33;;
12350;SDS011;6240;51.538;7.696;2022-10-16T02:08:46;1.53;;;1.43;;
12350;SDS011;6240;51.538;7.696;2022-10-16T02:11:13;2.60;;;1.30;;
12350;SDS011;6240;51.538;7.696;2022-10-16T02:13:41;3.53;;;1.27;;
12350;SDS011;6240;51.538;7.696;2022-10-16T02:16:11;2.10;;;1.43;;
12350;SDS011;6240;51.538;7.696;2022-10-16T02:18:40;1.13;;;1.13;;
12350;SDS011;6240;51.538;7.696;2022-10-16T02:21:10;2.43;;;1.30;;
12350;SDS011;6240;51.538;7.696;2022-10-16T02:23:41;1.77;;;1.37;;
12350;SDS011;6240;51.538;7.696;2022-10-16T02:26:12;2.33;;;1.10;;
12350;SDS011;6240;51.538;7.696;2022-10-16T02:28:42;1.43;;;1.30;;
12350;SDS011;6240;51.538;7.696;2022-10-16T02:31:13;1.63;;;1.40;;
12350;SDS011;6240;51.538;7.696;2022-10-16T02:33:44;2.63;;;1.37;;
12350;SDS011;6240;51.538;7.696;2022-10-16T02:36:12;1.90;;;1.30;;
12350;SDS011;6240;51.538;7.696;2022-10-16T02:38:40;1.73;;;1.50;;
12350;SDS011;6240;51.538;7.696;2022-10-16T02:41:07;1.40;;;1.30;;
12350;SDS011;6240;51.538;7.696;2022-10-16T02:43:34;3.03;;;1.43;;
12350;SDS011;6240;51.538;7.696;2022-10-16T02:46:02;2.83;;;1.33;;
12350;SDS011;6240;51.538;7.696;2022-10-16T02:48:29;3.60;;;1.40;;
12350;SDS011;6240;51.538;7.696;2022-10-16T02:50:57;1.77;;;1.20;;
12350;SDS011;6240;51.538;7.696;2022-10-16T02:53:24;2.20;;;1.33;;
12350;SDS011;6240;51.538;7.696;2022-10-16T02:55:51;2.10;;;1.20;;
12350;SDS011;6240;51.538;7.696;2022-10-16T02:58:19;2.23;;;1.50;;
12350;SDS011;6240;51.538;7.696;2022-10-16T03:00:46;2.50;;;1.27;;
12350;SDS011;6240;51.538;7.696;2022-10-16T03:03:13;1.47;;;1.10;;
12350;SDS011;6240;51.538;7.696;2022-10-16T03:05:42;1.53;;;1.20;;
12350;SDS011;6240;51.538;7.696;2022-10-16T03:08:12;2.50;;;1.20;;
12350;SDS011;6240;51.538;7.696;2022-10-16T03:10:39;2.00;;;1.20;;
12350;SDS011;6240;51.538;7.696;2022-10-16T03:13:06;1.63;;;1.20;;
12350;SDS011;6240;51.538;7.696;2022-10-16T03:15:33;1.30;;;1.20;;
12350;SDS011;6240;51.538;7.696;2022-10-16T03:18:00;2.40;;;1.20;;
12350;SDS011;6240;51.538;7.696;2022-10-16T03:20:27;2.93;;;1.30;;
12350;SDS011;6240;51.538;7.696;2022-10-16T03:22:55;1.27;;;1.17;;
12350;SDS011;6240;51.538;7.696;2022-10-16T03:25:23;3.47;;;1.30;;
12350;SDS011;6240;51.538;7.696;2022-10-16T03:27:50;1.33;;;1.23;;
12350;SDS011;6240;51.538;7.696;2022-10-16T03:30:18;2.63;;;1.40;;
12350;SDS011;6240;51.538;7.696;2022-10-16T03:32:46;1.93;;;1.20;;
12350;SDS011;6240;51.538;7.696;2022-10-16T03:35:13;1.30;;;1.20;;
12350;SDS011;6240;51.538;7.696;2022-10-16T03:37:40;2.13;;;1.60;;
12350;SDS011;6240;51.538;7.696;2022-10-16T03:40:07;1.40;;;1.10;;
12350;SDS011;6240;51.538;7.696;2022-10-16T03:42:36;2.37;;;1.17;;
12350;SDS011;6240;51.538;7.696;2022-10-16T03:45:04;1.20;;;1.00;;
12350;SDS011;6240;51.538;7.696;2022-10-16T03:47:31;1.43;;;1.00;;
12350;SDS011;6240;51.538;7.696;2022-10-16T03:49:58;2.03;;;1.10;;
12350;SDS011;6240;51.538;7.696;2022-10-16T03:52:26;1.00;;;1.00;;
12350;SDS011;6240;51.538;7.696;2022-10-16T03:54:53;2.63;;;1.23;;
12350;SDS011;6240;51.538;7.696;2022-10-16T03:57:20;2.20;;;1.30;;
12350;SDS011;6240;51.538;7.696;2022-10-16T03:59:49;1.13;;;1.03;;
12350;SDS011;6240;51.538;7.696;2022-10-16T04:02:16;2.90;;;1.20;;
12350;SDS011;6240;51.538;7.696;2022-10-16T04:04:44;0.87;;;0.83;;
12350;SDS011;6240;51.538;7.696;2022-10-16T04:07:14;1.20;;;1.10;;
12350;SDS011;6240;51.538;7.696;2022-10-16T04:09:43;1.20;;;1.10;;
12350;SDS011;6240;51.538;7.696;2022-10-16T04:12:11;2.30;;;1.10;;
12350;SDS011;6240;51.538;7.696;2022-10-16T04:14:38;1.00;;;0.90;;
12350;SDS011;6240;51.538;7.696;2022-10-16T04:17:06;1.60;;;0.80;;
12350;SDS011;6240;51.538;7.696;2022-10-16T04:19:33;2.97;;;1.13;;
12350;SDS011;6240;51.538;7.696;2022-10-16T04:22:00;1.20;;;1.20;;
12350;SDS011;6240;51.538;7.696;2022-10-16T04:24:28;1.30;;;0.90;;
12350;SDS011;6240;51.538;7.696;2022-10-16T04:26:55;2.47;;;1.03;;
12350;SDS011;6240;51.538;7.696;2022-10-16T04:29:22;2.70;;;1.10;;
12350;SDS011;6240;51.538;7.696;2022-10-16T04:31:49;0.90;;;0.90;;
12350;SDS011;6240;51.538;7.696;2022-10-16T04:34:18;3.10;;;0.97;;
12350;SDS011;6240;51.538;7.696;2022-10-16T04:36:46;1.10;;;1.00;;
12350;SDS011;6240;51.538;7.696;2022-10-16T04:39:14;0.93;;;0.90;;
12350;SDS011;6240;51.538;7.696;2022-10-16T04:41:41;2.30;;;1.13;;
12350;SDS011;6240;51.538;7.696;2022-10-16T04:44:08;1.47;;;1.10;;
12350;SDS011;6240;51.538;7.696;2022-10-16T04:46:35;1.07;;;0.97;;
12350;SDS011;6240;51.538;7.696;2022-10-16T04:49:02;2.73;;;0.80;;
12350;SDS011;6240;51.538;7.696;2022-10-16T04:51:31;0.60;;;0.60;;
12350;SDS011;6240;51.538;7.696;2022-10-16T04:53:58;2.10;;;1.00;;
12350;SDS011;6240;51.538;7.696;2022-10-16T04:56:25;1.60;;;0.70;;
12350;SDS011;6240;51.538;7.696;2022-10-16T04:58:52;2.77;;;0.93;;
12350;SDS011;6240;51.538;7.696;2022-10-16T05:01:20;1.97;;;0.80;;
12350;SDS011;6240;51.538;7.696;2022-10-16T05:03:47;2.60;;;0.90;;
12350;SDS011;6240;51.538;7.696;2022-10-16T05:06:14;2.50;;;0.90;;
12350;SDS011;6240;51.538;7.696;2022-10-16T05:08:42;1.57;;;1.07;;
12350;SDS011;6240;51.538;7.696;2022-10-16T05:11:10;2.50;;;0.80;;
12350;SDS011;6240;51.538;7.696;2022-10-16T05:13:37;4.20;;;1.20;;
12350;SDS011;6240;51.538;7.696;2022-10-16T05:16:04;1.83;;;0.90;;
12350;SDS011;6240;51.538;7.696;2022-10-16T05:18:31;1.07;;;1.00;;
12350;SDS011;6240;51.538;7.696;2022-10-16T05:20:59;1.27;;;0.80;;
12350;SDS011;6240;51.538;7.696;2022-10-16T05:23:26;1.00;;;0.90;;
12350;SDS011;6240;51.538;7.696;2022-10-16T05:25:55;1.90;;;1.10;;
12350;SDS011;6240;51.538;7.696;2022-10-16T05:28:23;5.03;;;1.00;;
12350;SDS011;6240;51.538;7.696;2022-10-16T05:30:50;1.80;;;1.00;;
12350;SDS011;6240;51.538;7.696;2022-10-16T05:33:19;1.43;;;1.00;;
12350;SDS011;6240;51.538;7.696;2022-10-16T05:35:46;1.43;;;0.90;;
12350;SDS011;6240;51.538;7.696;2022-10-16T05:38:14;2.47;;;0.80;;
12350;SDS011;6240;51.538;7.696;2022-10-16T05:40:42;0.80;;;0.80;;
12350;SDS011;6240;51.538;7.696;2022-10-16T05:43:10;1.97;;;0.97;;
12350;SDS011;6240;51.538;7.696;2022-10-16T05:45:37;1.73;;;1.10;;
12350;SDS011;6240;51.538;7.696;2022-10-16T05:48:04;1.00;;;0.90;;
12350;SDS011;6240;51.538;7.696;2022-10-16T05:50:32;3.07;;;1.20;;
12350;SDS011;6240;51.538;7.696;2022-10-16T05:52:59;1.27;;;0.80;;
12350;SDS011;6240;51.538;7.696;2022-10-16T05:55:26;1.20;;;1.00;;
12350;SDS011;6240;51.538;7.696;2022-10-16T05:57:53;2.10;;;0.97;;
12350;SDS011;6240;51.538;7.696;2022-10-16T06:00:22;1.00;;;0.77;;
12350;SDS011;6240;51.538;7.696;2022-10-16T06:02:49;2.27;;;0.90;;
12350;SDS011;6240;51.538;7.696;2022-10-16T06:05:16;0.90;;;0.90;;
12350;SDS011;6240;51.538;7.696;2022-10-16T06:07:43;0.90;;;0.90;;
12350;SDS011;6240;51.538;7.696;2022-10-16T06:10:11;1.40;;;0.90;;
12350;SDS011;6240;51.538;7.696;2022-10-16T06:12:38;1.53;;;0.80;;
12350;SDS011;6240;51.538;7.696;2022-10-16T06:15:05;2.40;;;0.90;;
12350;SDS011;6240;51.538;7.696;2022-10-16T06:17:34;2.07;;;1.00;;
12350;SDS011;6240;51.538;7.696;2022-10-16T06:20:01;2.50;;;1.00;;
12350;SDS011;6240;51.538;7.696;2022-10-16T06:22:28;1.07;;;0.83;;
12350;SDS011;6240;51.538;7.696;2022-10-16T06:24:55;0.83;;;0.83;;
12350;SDS011;6240;51.538;7.696;2022-10-16T06:27:22;1.03;;;0.90;;
12350;SDS011;6240;51.538;7.696;2022-10-16T06:29:50;2.73;;;0.97;;
12350;SDS011;6240;51.538;7.696;2022-10-16T06:32:17;2.33;;;0.97;;
12350;SDS011;6240;51.538;7.696;2022-10-16T06:34:46;3.17;;;1.17;;
12350;SDS011;6240;51.538;7.696;2022-10-16T06:37:13;1.57;;;1.20;;
12350;SDS011;6240;51.538;7.696;2022-10-16T06:39:40;1.20;;;1.00;;
12350;SDS011;6240;51.538;7.696;2022-10-16T06:42:07;1.73;;;1.00;;
12350;SDS011;6240;51.538;7.696;2022-10-16T06:44:34;0.80;;;0.80;;
12350;SDS011;6240;51.538;7.696;2022-10-16T06:47:01;1.47;;;1.10;;
12350;SDS011;6240;51.538;7.696;2022-10-16T06:49:29;2.70;;;0.90;;
12350;SDS011;6240;51.538;7.696;2022-10-16T06:51:57;0.90;;;0.90;;
12350;SDS011;6240;51.538;7.696;2022-10-16T06:54:24;0.97;;;0.97;;
12350;SDS011;6240;51.538;7.696;2022-10-16T06:56:51;2.17;;;1.13;;
12350;SDS011;6240;51.538;7.696;2022-10-16T06:59:19;1.77;;;1.17;;
12350;SDS011;6240;51.538;7.696;2022-10-16T07:01:46;2.33;;;0.90;;
12350;SDS011;6240;51.538;7.696;2022-10-16T07:04:14;1.90;;;1.00;;
12350;SDS011;6240;51.538;7.696;2022-10-16T07:06:41;1.60;;;1.50;;
12350;SDS011;6240;51.538;7.696;2022-10-16T07:09:10;1.20;;;1.00;;
12350;SDS011;6240;51.538;7.696;2022-10-16T07:11:37;0.90;;;0.90;;
12350;SDS011;6240;51.538;7.696;2022-10-16T07:14:08;0.87;;;0.83;;
12350;SDS011;6240;51.538;7.696;2022-10-16T07:16:37;1.07;;;1.00;;
12350;SDS011;6240;51.538;7.696;2022-10-16T07:19:04;1.30;;;1.10;;
12350;SDS011;6240;51.538;7.696;2022-10-16T07:21:32;2.17;;;1.00;;
12350;SDS011;6240;51.538;7.696;2022-10-16T07:24:01;1.27;;;1.00;;
12350;SDS011;6240;51.538;7.696;2022-10-16T07:26:30;2.17;;;1.10;;
12350;SDS011;6240;51.538;7.696;2022-10-16T07:28:58;1.10;;;1.00;;
12350;SDS011;6240;51.538;7.696;2022-10-16T07:31:25;1.00;;;0.90;;
12350;SDS011;6240;51.538;7.696;2022-10-16T07:33:53;1.30;;;1.13;;
12350;SDS011;6240;51.538;7.696;2022-10-16T07:36:20;2.87;;;1.27;;
12350;SDS011;6240;51.538;7.696;2022-10-16T07:38:48;2.00;;;1.07;;
12350;SDS011;6240;51.538;7.696;2022-10-16T07:41:16;1.53;;;1.03;;
12350;SDS011;6240;51.538;7.696;2022-10-16T07:43:46;3.13;;;1.30;;
12350;SDS011;6240;51.538;7.696;2022-10-16T07:46:13;1.63;;;1.20;;
12350;SDS011;6240;51.538;7.696;2022-10-16T07:48:41;1.33;;;1.20;;
12350;SDS011;6240;51.538;7.696;2022-10-16T07:51:11;2.50;;;1.10;;
12350;SDS011;6240;51.538;7.696;2022-10-16T07:53:38;2.43;;;1.10;;
12350;SDS011;6240;51.538;7.696;2022-10-16T07:56:06;2.33;;;1.27;;
12350;SDS011;6240;51.538;7.696;2022-10-16T07:58:34;1.47;;;1.10;;
12350;SDS011;6240;51.538;7.696;2022-10-16T08:01:04;1.37;;;1.03;;
12350;SDS011;6240;51.538;7.696;2022-10-16T08:03:31;5.13;;;1.50;;
12350;SDS011;6240;51.538;7.696;2022-10-16T08:05:59;1.90;;;1.23;;
12350;SDS011;6240;51.538;7.696;2022-10-16T08:08:26;2.40;;;1.00;;
12350;SDS011;6240;51.538;7.696;2022-10-16T08:10:54;2.27;;;1.00;;
12350;SDS011;6240;51.538;7.696;2022-10-16T08:13:21;1.37;;;1.07;;
12350;SDS011;6240;51.538;7.696;2022-10-16T08:15:50;1.53;;;1.43;;
12350;SDS011;6240;51.538;7.696;2022-10-16T08:18:19;2.23;;;1.07;;
12350;SDS011;6240;51.538;7.696;2022-10-16T08:20:46;1.20;;;1.10;;
12350;SDS011;6240;51.538;7.696;2022-10-16T08:23:13;2.70;;;1.20;;
12350;SDS011;6240;51.538;7.696;2022-10-16T08:25:41;2.00;;;1.23;;
12350;SDS011;6240;51.538;7.696;2022-10-16T08:28:10;1.50;;;1.30;;
12350;SDS011;6240;51.538;7.696;2022-10-16T08:30:37;1.50;;;1.30;;
12350;SDS011;6240;51.538;7.696;2022-10-16T08:33:05;2.33;;;1.40;;
12350;SDS011;6240;51.538;7.696;2022-10-16T08:35:34;1.30;;;1.20;;
12350;SDS011;6240;51.538;7.696;2022-10-16T08:38:02;5.67;;;1.37;;
12350;SDS011;6240;51.538;7.696;2022-10-16T08:40:30;1.50;;;1.20;;
12350;SDS011;6240;51.538;7.696;2022-10-16T08:43:03;4.20;;;1.23;;
12350;SDS011;6240;51.538;7.696;2022-10-16T08:45:34;2.13;;;1.27;;
12350;SDS011;6240;51.538;7.696;2022-10-16T08:48:06;1.63;;;1.17;;
12350;SDS011;6240;51.538;7.696;2022-10-16T08:50:37;1.33;;;1.03;;
12350;SDS011;6240;51.538;7.696;2022-10-16T08:53:05;2.30;;;1.10;;
12350;SDS011;6240;51.538;7.696;2022-10-16T08:55:34;5.33;;;1.27;;
12350;SDS011;6240;51.538;7.696;2022-10-16T08:58:08;0.80;;;0.80;;
12350;SDS011;6240;51.538;7.696;2022-10-16T09:00:38;2.60;;;1.63;;
12350;SDS011;6240;51.538;7.696;2022-10-16T09:03:07;4.13;;;1.20;;
12350;SDS011;6240;51.538;7.696;2022-10-16T09:05:45;2.30;;;1.00;;
12350;SDS011;6240;51.538;7.696;2022-10-16T09:08:16;1.27;;;1.07;;
12350;SDS011;6240;51.538;7.696;2022-10-16T09:10:49;3.20;;;1.07;;
12350;SDS011;6240;51.538;7.696;2022-10-16T09:13:20;1.30;;;0.90;;
12350;SDS011;6240;51.538;7.696;2022-10-16T09:15:51;2.73;;;1.10;;
12350;SDS011;6240;51.538;7.696;2022-10-16T09:18:21;2.13;;;1.00;;
12350;SDS011;6240;51.538;7.696;2022-10-16T09:20:53;3.67;;;1.40;;
12350;SDS011;6240;51.538;7.696;2022-10-16T09:23:25;1.83;;;0.90;;
12350;SDS011;6240;51.538;7.696;2022-10-16T09:25:53;1.83;;;1.20;;
12350;SDS011;6240;51.538;7.696;2022-10-16T09:28:21;1.23;;;1.13;;
12350;SDS011;6240;51.538;7.696;2022-10-16T09:30:48;2.27;;;0.90;;
12350;SDS011;6240;51.538;7.696;2022-10-16T09:33:17;2.47;;;1.00;;
12350;SDS011;6240;51.538;7.696;2022-10-16T09:35:45;1.67;;;0.80;;
12350;SDS011;6240;51.538;7.696;2022-10-16T09:41:19;1.33;;;0.70;;
12350;SDS011;6240;51.538;7.696;2022-10-16T09:43:48;1.30;;;0.87;;
12350;SDS011;6240;51.538;7.696;2022-10-16T09:46:25;4.00;;;1.20;;
12350;SDS011;6240;51.538;7.696;2022-10-16T09:48:53;1.48;;;0.85;;
12350;SDS011;6240;51.538;7.696;2022-10-16T09:51:22;2.00;;;0.80;;
12350;SDS011;6240;51.538;7.696;2022-10-16T09:53:53;3.20;;;1.27;;
12350;SDS011;6240;51.538;7.696;2022-10-16T09:56:23;4.30;;;1.13;;
12350;SDS011;6240;51.538;7.696;2022-10-16T09:58:50;2.30;;;0.80;;
12350;SDS011;6240;51.538;7.696;2022-10-16T10:01:18;1.30;;;0.88;;
12350;SDS011;6240;51.538;7.696;2022-10-16T10:03:48;3.15;;;0.90;;
12350;SDS011;6240;51.538;7.696;2022-10-16T10:06:20;1.20;;;1.00;;
12350;SDS011;6240;51.538;7.696;2022-10-16T10:08:52;2.67;;;0.60;;
12350;SDS011;6240;51.538;7.696;2022-10-16T10:11:42;2.50;;;1.17;;
12350;SDS011;6240;51.538;7.696;2022-10-16T10:14:17;0.90;;;0.80;;
12350;SDS011;6240;51.538;7.696;2022-10-16T10:16:45;1.85;;;0.73;;
12350;SDS011;6240;51.538;7.696;2022-10-16T10:19:16;0.90;;;0.80;;
12350;SDS011;6240;51.538;7.696;2022-10-16T10:21:43;2.58;;;0.77;;
12350;SDS011;6240;51.538;7.696;2022-10-16T10:24:11;1.40;;;0.68;;
12350;SDS011;6240;51.538;7.696;2022-10-16T10:26:43;1.33;;;0.75;;
12350;SDS011;6240;51.538;7.696;2022-10-16T10:29:13;3.53;;;0.80;;
12350;SDS011;6240;51.538;7.696;2022-10-16T10:31:43;1.83;;;0.93;;
12350;SDS011;6240;51.538;7.696;2022-10-16T10:34:19;2.28;;;0.82;;
12350;SDS011;6240;51.538;7.696;2022-10-16T10:36:51;1.17;;;0.85;;
12350;SDS011;6240;51.538;7.696;2022-10-16T10:39:21;1.42;;;0.93;;
12350;SDS011;6240;51.538;7.696;2022-10-16T10:41:59;2.10;;;1.80;;
12350;SDS011;6240;51.538;7.696;2022-10-16T10:44:33;1.70;;;1.10;;
12350;SDS011;6240;51.538;7.696;2022-10-16T10:47:05;2.85;;;0.90;;
12350;SDS011;6240;51.538;7.696;2022-10-16T10:49:38;1.90;;;0.98;;
12350;SDS011;6240;51.538;7.696;2022-10-16T10:52:13;3.13;;;1.02;;
12350;SDS011;6240;51.538;7.696;2022-10-16T10:54:50;1.55;;;0.60;;
12350;SDS011;6240;51.538;7.696;2022-10-16T10:57:28;1.95;;;0.85;;
12350;SDS011;6240;51.538;7.696;2022-10-16T11:00:03;5.15;;;1.65;;
12350;SDS011;6240;51.538;7.696;2022-10-16T11:02:36;3.72;;;0.95;;
12350;SDS011;6240;51.538;7.696;2022-10-16T11:05:11;2.22;;;1.00;;
12350;SDS011;6240;51.538;7.696;2022-10-16T11:07:42;2.22;;;0.80;;
12350;SDS011;6240;51.538;7.696;2022-10-16T11:10:13;0.88;;;0.60;;
12350;SDS011;6240;51.538;7.696;2022-10-16T11:12:44;2.17;;;0.85;;
12350;SDS011;6240;51.538;7.696;2022-10-16T11:15:14;2.83;;;1.25;;
12350;SDS011;6240;51.538;7.696;2022-10-16T11:17:46;1.20;;;0.70;;
12350;SDS011;6240;51.538;7.696;2022-10-16T11:20:16;2.22;;;0.95;;
12350;SDS011;6240;51.538;7.696;2022-10-16T11:22:45;2.28;;;1.05;;
12350;SDS011;6240;51.538;7.696;2022-10-16T11:25:15;1.92;;;1.08;;
12350;SDS011;6240;51.538;7.696;2022-10-16T11:27:44;1.55;;;1.08;;
12350;SDS011;6240;51.538;7.696;2022-10-16T11:30:15;1.40;;;1.23;;
12350;SDS011;6240;51.538;7.696;2022-10-16T11:32:47;2.65;;;0.90;;
12350;SDS011;6240;51.538;7.696;2022-10-16T11:35:17;1.20;;;0.90;;
12350;SDS011;6240;51.538;7.696;2022-10-16T11:37:47;1.88;;;1.30;;
12350;SDS011;6240;51.538;7.696;2022-10-16T11:40:19;2.60;;;2.40;;
12350;SDS011;6240;51.538;7.696;2022-10-16T11:42:48;3.03;;;1.48;;
12350;SDS011;6240;51.538;7.696;2022-10-16T11:45:21;1.30;;;0.88;;
12350;SDS011;6240;51.538;7.696;2022-10-16T11:48:04;1.48;;;0.73;;
12350;SDS011;6240;51.538;7.696;2022-10-16T11:50:34;2.78;;;0.70;;
12350;SDS011;6240;51.538;7.696;2022-10-16T11:53:11;1.75;;;0.80;;
12350;SDS011;6240;51.538;7.696;2022-10-16T11:55:44;1.98;;;0.70;;
12350;SDS011;6240;51.538;7.696;2022-10-16T11:58:18;1.83;;;1.30;;
12350;SDS011;6240;51.538;7.696;2022-10-16T12:00:51;2.70;;;1.10;;
12350;SDS011;6240;51.538;7.696;2022-10-16T12:03:22;2.65;;;1.00;;
12350;SDS011;6240;51.538;7.696;2022-10-16T12:05:59;4.35;;;0.90;;
12350;SDS011;6240;51.538;7.696;2022-10-16T12:08:29;0.80;;;0.63;;
12350;SDS011;6240;51.538;7.696;2022-10-16T12:11:05;2.42;;;0.90;;
12350;SDS011;6240;51.538;7.696;2022-10-16T12:13:35;2.13;;;1.00;;
12350;SDS011;6240;51.538;7.696;2022-10-16T12:16:06;1.35;;;0.80;;
12350;SDS011;6240;51.538;7.696;2022-10-16T12:18:33;1.05;;;0.70;;
12350;SDS011;6240;51.538;7.696;2022-10-16T12:21:03;2.20;;;0.73;;
12350;SDS011;6240;51.538;7.696;2022-10-16T12:23:33;1.00;;;0.70;;
12350;SDS011;6240;51.538;7.696;2022-10-16T12:26:03;1.27;;;0.90;;
12350;SDS011;6240;51.538;7.696;2022-10-16T12:28:31;1.10;;;0.73;;
12350;SDS011;6240;51.538;7.696;2022-10-16T12:31:01;3.65;;;1.27;;
12350;SDS011;6240;51.538;7.696;2022-10-16T12:33:29;3.72;;;0.95;;
12350;SDS011;6240;51.538;7.696;2022-10-16T12:35:58;1.42;;;1.08;;
12350;SDS011;6240;51.538;7.696;2022-10-16T12:38:28;1.40;;;0.98;;
12350;SDS011;6240;51.538;7.696;2022-10-16T12:40:59;2.05;;;0.93;;
12350;SDS011;6240;51.538;7.696;2022-10-16T12:43:34;0.60;;;0.60;;
12350;SDS011;6240;51.538;7.696;2022-10-16T12:46:04;0.85;;;0.70;;
12350;SDS011;6240;51.538;7.696;2022-10-16T12:48:31;3.08;;;0.90;;
12350;SDS011;6240;51.538;7.696;2022-10-16T12:51:09;1.63;;;0.80;;
12350;SDS011;6240;51.538;7.696;2022-10-16T12:53:36;2.88;;;0.93;;
12350;SDS011;6240;51.538;7.696;2022-10-16T12:56:04;2.25;;;1.27;;
12350;SDS011;6240;51.538;7.696;2022-10-16T13:01:28;1.38;;;0.95;;
12350;SDS011;6240;51.538;7.696;2022-10-16T13:06:42;2.15;;;0.88;;
12350;SDS011;6240;51.538;7.696;2022-10-16T13:09:15;1.08;;;0.50;;
12350;SDS011;6240;51.538;7.696;2022-10-16T13:11:51;2.42;;;1.50;;
12350;SDS011;6240;51.538;7.696;2022-10-16T13:14:23;3.20;;;1.40;;
12350;SDS011;6240;51.538;7.696;2022-10-16T13:16:55;1.35;;;0.75;;
12350;SDS011;6240;51.538;7.696;2022-10-16T13:19:25;2.30;;;1.00;;
12350;SDS011;6240;51.538;7.696;2022-10-16T13:21:56;1.58;;;0.88;;
12350;SDS011;6240;51.538;7.696;2022-10-16T13:24:32;1.27;;;0.65;;
12350;SDS011;6240;51.538;7.696;2022-10-16T13:27:05;5.70;;;1.63;;
12350;SDS011;6240;51.538;7.696;2022-10-16T13:29:34;2.13;;;1.42;;
12350;SDS011;6240;51.538;7.696;2022-10-16T13:32:07;1.60;;;1.02;;
12350;SDS011;6240;51.538;7.696;2022-10-16T13:34:44;1.88;;;1.77;;
12350;SDS011;6240;51.538;7.696;2022-10-16T13:37:16;2.55;;;1.73;;
12350;SDS011;6240;51.538;7.696;2022-10-16T13:39:44;0.63;;;0.60;;
12350;SDS011;6240;51.538;7.696;2022-10-16T13:42:12;1.67;;;0.70;;
12350;SDS011;6240;51.538;7.696;2022-10-16T13:44:40;2.78;;;1.00;;
12350;SDS011;6240;51.538;7.696;2022-10-16T13:47:20;1.90;;;0.80;;
12350;SDS011;6240;51.538;7.696;2022-10-16T13:49:58;2.05;;;0.70;;
12350;SDS011;6240;51.538;7.696;2022-10-16T13:52:25;2.42;;;1.88;;
12350;SDS011;6240;51.538;7.696;2022-10-16T13:54:53;2.45;;;1.63;;
12350;SDS011;6240;51.538;7.696;2022-10-16T13:57:21;0.77;;;0.77;;
12350;SDS011;6240;51.538;7.696;2022-10-16T13:59:49;2.10;;;0.75;;
12350;SDS011;6240;51.538;7.696;2022-10-16T14:02:18;2.17;;;0.80;;
12350;SDS011;6240;51.538;7.696;2022-10-16T14:04:48;1.77;;;0.60;;
12350;SDS011;6240;51.538;7.696;2022-10-16T14:07:18;1.30;;;0.65;;
12350;SDS011;6240;51.538;7.696;2022-10-16T14:09:47;1.40;;;0.90;;
12350;SDS011;6240;51.538;7.696;2022-10-16T14:12:15;3.65;;;2.33;;
12350;SDS011;6240;51.538;7.696;2022-10-16T14:14:42;0.95;;;0.60;;
12350;SDS011;6240;51.538;7.696;2022-10-16T14:17:13;1.35;;;1.10;;
12350;SDS011;6240;51.538;7.696;2022-10-16T14:19:45;1.80;;;0.65;;
12350;SDS011;6240;51.538;7.696;2022-10-16T14:22:23;2.35;;;0.70;;
12350;SDS011;6240;51.538;7.696;2022-10-16T14:24:51;1.60;;;0.63;;
12350;SDS011;6240;51.538;7.696;2022-10-16T14:27:23;2.20;;;0.85;;
12350;SDS011;6240;51.538;7.696;2022-10-16T14:30:01;1.95;;;0.80;;
12350;SDS011;6240;51.538;7.696;2022-10-16T14:32:28;0.60;;;0.50;;
12350;SDS011;6240;51.538;7.696;2022-10-16T14:34:57;1.67;;;0.90;;
12350;SDS011;6240;51.538;7.696;2022-10-16T14:37:26;1.40;;;0.90;;
12350;SDS011;6240;51.538;7.696;2022-10-16T14:39:54;1.73;;;0.70;;
12350;SDS011;6240;51.538;7.696;2022-10-16T14:42:22;1.77;;;1.00;;
12350;SDS011;6240;51.538;7.696;2022-10-16T14:44:50;1.23;;;0.70;;
12350;SDS011;6240;51.538;7.696;2022-10-16T14:47:18;2.88;;;0.70;;
12350;SDS011;6240;51.538;7.696;2022-10-16T14:49:49;2.72;;;0.70;;
12350;SDS011;6240;51.538;7.696;2022-10-16T14:52:16;0.80;;;0.60;;
12350;SDS011;6240;51.538;7.696;2022-10-16T14:54:46;0.70;;;0.70;;
12350;SDS011;6240;51.538;7.696;2022-10-16T14:57:18;1.20;;;0.70;;
12350;SDS011;6240;51.538;7.696;2022-10-16T14:59:46;1.08;;;0.88;;
12350;SDS011;6240;51.538;7.696;2022-10-16T15:02:17;3.15;;;0.88;;
12350;SDS011;6240;51.538;7.696;2022-10-16T15:04:45;2.70;;;0.98;;
12350;SDS011;6240;51.538;7.696;2022-10-16T15:07:12;1.20;;;0.82;;
12350;SDS011;6240;51.538;7.696;2022-10-16T15:09:39;0.93;;;0.80;;
12350;SDS011;6240;51.538;7.696;2022-10-16T15:12:08;1.55;;;0.63;;
12350;SDS011;6240;51.538;7.696;2022-10-16T15:14:35;1.27;;;0.80;;
12350;SDS011;6240;51.538;7.696;2022-10-16T15:17:03;2.10;;;0.77;;
12350;SDS011;6240;51.538;7.696;2022-10-16T15:19:30;2.55;;;0.77;;
12350;SDS011;6240;51.538;7.696;2022-10-16T15:21:59;1.85;;;0.80;;
12350;SDS011;6240;51.538;7.696;2022-10-16T15:24:26;2.28;;;0.90;;